Terminal Aerodrome Forecast
Issued by NWS

Home | Current Version | Previous Version | Text Only | Print | Product List | Glossary On
Versions: 1 2 3 4 5 6 7 8 9 10 11 12 13 14 15 16 17 18 19 20 21 22 23 24 25 26 27 28 29 30 31 32 33 34 35 36 37 38 39 40
000
FTAK31 PANC 211120
TAFACD
TAF
PACD 211120Z 2112/2212 34015KT 6SM -SHSN SCT025 OVC040
      TEMPO 2112/2116 2SM -SHSN BKN015 OVC025
     FM211600 34012KT P6SM SCT030 BKN050
     FM220000 24008KT P6SM -SHSN BKN035=

USA.gov is the U.S. government's official web portal to all federal, state and local government web resources and services.